sensor_id;sensor_type;location;lat;lon;timestamp;P1;durP1;ratioP1;P2;durP2;ratioP2
1577;SDS011;57623;53.608;10.004;2023-04-06T00:02:16;6.50;;;5.90;;
1577;SDS011;57623;53.608;10.004;2023-04-06T00:04:45;6.40;;;5.80;;
1577;SDS011;57623;53.608;10.004;2023-04-06T00:07:13;6.30;;;5.70;;
1577;SDS011;57623;53.608;10.004;2023-04-06T00:09:41;7.00;;;6.30;;
1577;SDS011;57623;53.608;10.004;2023-04-06T00:12:11;6.60;;;6.00;;
1577;SDS011;57623;53.608;10.004;2023-04-06T00:14:39;6.43;;;5.83;;
1577;SDS011;57623;53.608;10.004;2023-04-06T00:17:07;7.27;;;6.50;;
1577;SDS011;57623;53.608;10.004;2023-04-06T00:19:36;6.53;;;5.83;;
1577;SDS011;57623;53.608;10.004;2023-04-06T00:22:04;6.13;;;5.50;;
1577;SDS011;57623;53.608;10.004;2023-04-06T00:24:32;6.87;;;6.17;;
1577;SDS011;57623;53.608;10.004;2023-04-06T00:27:00;6.00;;;5.50;;
1577;SDS011;57623;53.608;10.004;2023-04-06T00:29:30;6.63;;;6.00;;
1577;SDS011;57623;53.608;10.004;2023-04-06T00:31:58;6.67;;;5.97;;
1577;SDS011;57623;53.608;10.004;2023-04-06T00:34:26;7.40;;;5.53;;
1577;SDS011;57623;53.608;10.004;2023-04-06T00:36:54;7.37;;;6.40;;
1577;SDS011;57623;53.608;10.004;2023-04-06T00:39:22;7.70;;;6.17;;
1577;SDS011;57623;53.608;10.004;2023-04-06T00:41:50;6.03;;;5.53;;
1577;SDS011;57623;53.608;10.004;2023-04-06T00:44:19;6.30;;;5.70;;
1577;SDS011;57623;53.608;10.004;2023-04-06T00:46:49;7.40;;;6.57;;
1577;SDS011;57623;53.608;10.004;2023-04-06T00:49:17;7.00;;;6.30;;
1577;SDS011;57623;53.608;10.004;2023-04-06T00:51:45;6.70;;;6.00;;
1577;SDS011;57623;53.608;10.004;2023-04-06T00:54:14;6.67;;;5.87;;
1577;SDS011;57623;53.608;10.004;2023-04-06T00:56:42;7.30;;;6.10;;
1577;SDS011;57623;53.608;10.004;2023-04-06T00:59:10;6.30;;;5.70;;
1577;SDS011;57623;53.608;10.004;2023-04-06T01:01:39;7.70;;;6.17;;
1577;SDS011;57623;53.608;10.004;2023-04-06T01:04:08;6.73;;;6.13;;
1577;SDS011;57623;53.608;10.004;2023-04-06T01:06:36;9.03;;;6.27;;
1577;SDS011;57623;53.608;10.004;2023-04-06T01:09:04;8.00;;;5.67;;
1577;SDS011;57623;53.608;10.004;2023-04-06T01:11:33;5.90;;;5.30;;
1577;SDS011;57623;53.608;10.004;2023-04-06T01:14:03;6.23;;;5.63;;
1577;SDS011;57623;53.608;10.004;2023-04-06T01:16:31;7.47;;;6.20;;
1577;SDS011;57623;53.608;10.004;2023-04-06T01:18:59;7.10;;;6.00;;
1577;SDS011;57623;53.608;10.004;2023-04-06T01:21:29;6.67;;;6.07;;
1577;SDS011;57623;53.608;10.004;2023-04-06T01:23:58;7.27;;;6.53;;
1577;SDS011;57623;53.608;10.004;2023-04-06T01:26:26;6.40;;;5.63;;
1577;SDS011;57623;53.608;10.004;2023-04-06T01:28:55;6.33;;;5.50;;
1577;SDS011;57623;53.608;10.004;2023-04-06T01:31:24;7.20;;;5.80;;
1577;SDS011;57623;53.608;10.004;2023-04-06T01:33:52;6.80;;;6.10;;
1577;SDS011;57623;53.608;10.004;2023-04-06T01:36:21;6.50;;;5.90;;
1577;SDS011;57623;53.608;10.004;2023-04-06T01:38:49;7.83;;;6.47;;
1577;SDS011;57623;53.608;10.004;2023-04-06T01:41:18;6.60;;;5.90;;
1577;SDS011;57623;53.608;10.004;2023-04-06T01:43:47;7.13;;;6.00;;
1577;SDS011;57623;53.608;10.004;2023-04-06T01:46:15;6.97;;;6.37;;
1577;SDS011;57623;53.608;10.004;2023-04-06T01:48:43;6.90;;;6.20;;
1577;SDS011;57623;53.608;10.004;2023-04-06T01:51:12;6.60;;;5.90;;
1577;SDS011;57623;53.608;10.004;2023-04-06T01:53:40;6.77;;;6.07;;
1577;SDS011;57623;53.608;10.004;2023-04-06T01:56:09;6.63;;;5.93;;
1577;SDS011;57623;53.608;10.004;2023-04-06T01:58:38;7.60;;;6.57;;
1577;SDS011;57623;53.608;10.004;2023-04-06T02:01:06;6.53;;;5.93;;
1577;SDS011;57623;53.608;10.004;2023-04-06T02:03:34;6.70;;;6.00;;
1577;SDS011;57623;53.608;10.004;2023-04-06T02:06:03;6.83;;;6.00;;
1577;SDS011;57623;53.608;10.004;2023-04-06T02:08:31;6.80;;;6.10;;
1577;SDS011;57623;53.608;10.004;2023-04-06T02:10:59;6.93;;;6.23;;
1577;SDS011;57623;53.608;10.004;2023-04-06T02:13:27;7.23;;;6.53;;
1577;SDS011;57623;53.608;10.004;2023-04-06T02:15:57;6.90;;;6.10;;
1577;SDS011;57623;53.608;10.004;2023-04-06T02:18:25;6.47;;;5.97;;
1577;SDS011;57623;53.608;10.004;2023-04-06T02:20:54;7.20;;;6.60;;
1577;SDS011;57623;53.608;10.004;2023-04-06T02:23:22;6.93;;;6.33;;
1577;SDS011;57623;53.608;10.004;2023-04-06T02:25:50;7.23;;;6.47;;
1577;SDS011;57623;53.608;10.004;2023-04-06T02:28:18;6.47;;;5.80;;
1577;SDS011;57623;53.608;10.004;2023-04-06T02:30:46;6.80;;;5.77;;
1577;SDS011;57623;53.608;10.004;2023-04-06T02:33:16;6.90;;;6.20;;
1577;SDS011;57623;53.608;10.004;2023-04-06T02:35:44;6.70;;;6.00;;
1577;SDS011;57623;53.608;10.004;2023-04-06T02:38:13;6.87;;;6.17;;
1577;SDS011;57623;53.608;10.004;2023-04-06T02:40:41;7.10;;;6.40;;
1577;SDS011;57623;53.608;10.004;2023-04-06T02:43:09;7.33;;;6.63;;
1577;SDS011;57623;53.608;10.004;2023-04-06T02:45:37;7.07;;;5.83;;
1577;SDS011;57623;53.608;10.004;2023-04-06T02:48:05;7.10;;;6.50;;
1577;SDS011;57623;53.608;10.004;2023-04-06T02:50:34;7.47;;;6.53;;
1577;SDS011;57623;53.608;10.004;2023-04-06T02:53:02;8.37;;;6.23;;
1577;SDS011;57623;53.608;10.004;2023-04-06T02:55:30;8.00;;;7.20;;
1577;SDS011;57623;53.608;10.004;2023-04-06T02:57:58;8.97;;;6.73;;
1577;SDS011;57623;53.608;10.004;2023-04-06T03:00:26;6.30;;;5.70;;
1577;SDS011;57623;53.608;10.004;2023-04-06T03:02:54;7.33;;;6.40;;
1577;SDS011;57623;53.608;10.004;2023-04-06T03:05:23;7.30;;;6.60;;
1577;SDS011;57623;53.608;10.004;2023-04-06T03:07:52;8.33;;;7.20;;
1577;SDS011;57623;53.608;10.004;2023-04-06T03:10:20;7.37;;;6.67;;
1577;SDS011;57623;53.608;10.004;2023-04-06T03:12:48;7.10;;;6.40;;
1577;SDS011;57623;53.608;10.004;2023-04-06T03:15:16;8.17;;;7.17;;
1577;SDS011;57623;53.608;10.004;2023-04-06T03:17:44;7.90;;;7.07;;
1577;SDS011;57623;53.608;10.004;2023-04-06T03:20:13;7.20;;;6.43;;
1577;SDS011;57623;53.608;10.004;2023-04-06T03:22:41;7.67;;;6.80;;
1577;SDS011;57623;53.608;10.004;2023-04-06T03:25:10;8.70;;;7.90;;
1577;SDS011;57623;53.608;10.004;2023-04-06T03:27:39;9.30;;;7.67;;
1577;SDS011;57623;53.608;10.004;2023-04-06T03:30:07;9.00;;;7.50;;
1577;SDS011;57623;53.608;10.004;2023-04-06T03:32:35;9.40;;;8.33;;
1577;SDS011;57623;53.608;10.004;2023-04-06T03:35:04;8.00;;;7.20;;
1577;SDS011;57623;53.608;10.004;2023-04-06T03:37:32;9.93;;;7.53;;
1577;SDS011;57623;53.608;10.004;2023-04-06T03:40:00;9.60;;;7.83;;
1577;SDS011;57623;53.608;10.004;2023-04-06T03:42:30;8.10;;;7.40;;
1577;SDS011;57623;53.608;10.004;2023-04-06T03:44:58;10.00;;;8.40;;
1577;SDS011;57623;53.608;10.004;2023-04-06T03:47:26;7.90;;;7.20;;
1577;SDS011;57623;53.608;10.004;2023-04-06T03:49:55;8.40;;;7.30;;
1577;SDS011;57623;53.608;10.004;2023-04-06T03:52:23;9.73;;;7.93;;
1577;SDS011;57623;53.608;10.004;2023-04-06T03:54:51;10.37;;;7.70;;
1577;SDS011;57623;53.608;10.004;2023-04-06T03:57:19;8.67;;;7.53;;
1577;SDS011;57623;53.608;10.004;2023-04-06T03:59:48;10.10;;;8.47;;
1577;SDS011;57623;53.608;10.004;2023-04-06T04:02:16;8.87;;;7.97;;
1577;SDS011;57623;53.608;10.004;2023-04-06T04:04:44;8.17;;;7.47;;
1577;SDS011;57623;53.608;10.004;2023-04-06T04:07:13;8.73;;;7.93;;
1577;SDS011;57623;53.608;10.004;2023-04-06T04:09:41;8.67;;;7.77;;
1577;SDS011;57623;53.608;10.004;2023-04-06T04:12:09;9.60;;;8.47;;
1577;SDS011;57623;53.608;10.004;2023-04-06T04:14:37;8.30;;;7.50;;
1577;SDS011;57623;53.608;10.004;2023-04-06T04:17:06;8.63;;;7.83;;
1577;SDS011;57623;53.608;10.004;2023-04-06T04:19:34;8.73;;;7.70;;
1577;SDS011;57623;53.608;10.004;2023-04-06T04:22:02;10.13;;;8.10;;
1577;SDS011;57623;53.608;10.004;2023-04-06T04:24:32;8.13;;;7.43;;
1577;SDS011;57623;53.608;10.004;2023-04-06T04:27:01;8.20;;;7.40;;
1577;SDS011;57623;53.608;10.004;2023-04-06T04:29:29;8.70;;;7.80;;
1577;SDS011;57623;53.608;10.004;2023-04-06T04:31:57;8.23;;;7.40;;
1577;SDS011;57623;53.608;10.004;2023-04-06T04:34:26;9.07;;;8.10;;
1577;SDS011;57623;53.608;10.004;2023-04-06T04:36:55;8.60;;;7.50;;
1577;SDS011;57623;53.608;10.004;2023-04-06T04:39:23;9.47;;;7.90;;
1577;SDS011;57623;53.608;10.004;2023-04-06T04:41:51;8.80;;;7.90;;
1577;SDS011;57623;53.608;10.004;2023-04-06T04:44:19;9.13;;;8.23;;
1577;SDS011;57623;53.608;10.004;2023-04-06T04:46:47;11.50;;;9.27;;
1577;SDS011;57623;53.608;10.004;2023-04-06T04:49:16;9.93;;;8.60;;
1577;SDS011;57623;53.608;10.004;2023-04-06T04:51:45;8.60;;;7.70;;
1577;SDS011;57623;53.608;10.004;2023-04-06T04:54:13;8.90;;;8.00;;
1577;SDS011;57623;53.608;10.004;2023-04-06T04:56:41;10.10;;;8.50;;
1577;SDS011;57623;53.608;10.004;2023-04-06T04:59:09;8.80;;;7.90;;
1577;SDS011;57623;53.608;10.004;2023-04-06T05:01:37;10.87;;;8.53;;
1577;SDS011;57623;53.608;10.004;2023-04-06T05:04:20;8.80;;;7.90;;
1577;SDS011;57623;53.608;10.004;2023-04-06T05:06:49;8.93;;;7.87;;
1577;SDS011;57623;53.608;10.004;2023-04-06T05:09:17;8.47;;;7.67;;
1577;SDS011;57623;53.608;10.004;2023-04-06T05:11:45;7.67;;;6.90;;
1577;SDS011;57623;53.608;10.004;2023-04-06T05:14:13;8.87;;;7.93;;
1577;SDS011;57623;53.608;10.004;2023-04-06T05:16:42;9.20;;;8.20;;
1577;SDS011;57623;53.608;10.004;2023-04-06T05:19:10;8.60;;;7.80;;
1577;SDS011;57623;53.608;10.004;2023-04-06T05:21:38;9.53;;;7.60;;
1577;SDS011;57623;53.608;10.004;2023-04-06T05:24:07;10.10;;;7.83;;
1577;SDS011;57623;53.608;10.004;2023-04-06T05:26:35;8.40;;;7.40;;
1577;SDS011;57623;53.608;10.004;2023-04-06T05:29:03;9.00;;;8.10;;
1577;SDS011;57623;53.608;10.004;2023-04-06T05:31:32;9.40;;;8.33;;
1577;SDS011;57623;53.608;10.004;2023-04-06T05:34:00;9.00;;;8.10;;
1577;SDS011;57623;53.608;10.004;2023-04-06T05:36:28;10.00;;;9.00;;
1577;SDS011;57623;53.608;10.004;2023-04-06T05:38:58;8.87;;;8.07;;
1577;SDS011;57623;53.608;10.004;2023-04-06T05:41:27;9.03;;;7.87;;
1577;SDS011;57623;53.608;10.004;2023-04-06T05:43:55;10.20;;;8.37;;
1577;SDS011;57623;53.608;10.004;2023-04-06T05:46:24;9.73;;;8.23;;
1577;SDS011;57623;53.608;10.004;2023-04-06T05:48:52;9.20;;;8.33;;
1577;SDS011;57623;53.608;10.004;2023-04-06T05:51:20;8.87;;;8.03;;
1577;SDS011;57623;53.608;10.004;2023-04-06T05:53:48;9.37;;;8.47;;
1577;SDS011;57623;53.608;10.004;2023-04-06T05:56:16;9.33;;;8.30;;
1577;SDS011;57623;53.608;10.004;2023-04-06T05:58:45;9.30;;;8.40;;
1577;SDS011;57623;53.608;10.004;2023-04-06T06:01:14;10.37;;;9.17;;
1577;SDS011;57623;53.608;10.004;2023-04-06T06:03:42;9.73;;;8.67;;
1577;SDS011;57623;53.608;10.004;2023-04-06T06:06:10;12.00;;;9.10;;
1577;SDS011;57623;53.608;10.004;2023-04-06T06:08:38;9.20;;;8.27;;
1577;SDS011;57623;53.608;10.004;2023-04-06T06:11:07;13.60;;;9.93;;
1577;SDS011;57623;53.608;10.004;2023-04-06T06:13:35;10.20;;;9.20;;
1577;SDS011;57623;53.608;10.004;2023-04-06T06:16:04;11.53;;;10.20;;
1577;SDS011;57623;53.608;10.004;2023-04-06T06:18:33;11.47;;;10.27;;
1577;SDS011;57623;53.608;10.004;2023-04-06T06:21:02;10.63;;;9.40;;
1577;SDS011;57623;53.608;10.004;2023-04-06T06:23:31;14.60;;;10.80;;
1577;SDS011;57623;53.608;10.004;2023-04-06T06:25:59;10.63;;;9.50;;
1577;SDS011;57623;53.608;10.004;2023-04-06T06:28:27;11.50;;;10.40;;
1577;SDS011;57623;53.608;10.004;2023-04-06T06:30:55;12.50;;;11.17;;
1577;SDS011;57623;53.608;10.004;2023-04-06T06:33:26;11.93;;;10.73;;
1577;SDS011;57623;53.608;10.004;2023-04-06T06:35:54;12.17;;;10.90;;
1577;SDS011;57623;53.608;10.004;2023-04-06T06:38:22;12.23;;;11.00;;
1577;SDS011;57623;53.608;10.004;2023-04-06T06:40:50;13.03;;;11.70;;
1577;SDS011;57623;53.608;10.004;2023-04-06T06:43:18;13.30;;;11.90;;
1577;SDS011;57623;53.608;10.004;2023-04-06T06:45:46;12.77;;;11.47;;
1577;SDS011;57623;53.608;10.004;2023-04-06T06:48:14;12.90;;;11.00;;
1577;SDS011;57623;53.608;10.004;2023-04-06T06:50:44;12.93;;;11.27;;
1577;SDS011;57623;53.608;10.004;2023-04-06T06:53:14;13.03;;;10.90;;
1577;SDS011;57623;53.608;10.004;2023-04-06T06:55:42;12.40;;;10.77;;
1577;SDS011;57623;53.608;10.004;2023-04-06T06:58:11;12.60;;;10.57;;
1577;SDS011;57623;53.608;10.004;2023-04-06T07:00:39;12.10;;;10.90;;
1577;SDS011;57623;53.608;10.004;2023-04-06T07:03:07;11.47;;;10.20;;
1577;SDS011;57623;53.608;10.004;2023-04-06T07:05:35;11.70;;;10.37;;
1577;SDS011;57623;53.608;10.004;2023-04-06T07:08:08;11.30;;;10.30;;
1577;SDS011;57623;53.608;10.004;2023-04-06T07:10:36;11.90;;;10.00;;
1577;SDS011;57623;53.608;10.004;2023-04-06T07:13:04;11.00;;;9.97;;
1577;SDS011;57623;53.608;10.004;2023-04-06T07:15:32;10.30;;;9.30;;
1577;SDS011;57623;53.608;10.004;2023-04-06T07:18:00;11.30;;;10.20;;
1577;SDS011;57623;53.608;10.004;2023-04-06T07:20:28;13.03;;;9.43;;
1577;SDS011;57623;53.608;10.004;2023-04-06T07:22:56;12.90;;;9.57;;
1577;SDS011;57623;53.608;10.004;2023-04-06T07:25:26;10.17;;;9.20;;
1577;SDS011;57623;53.608;10.004;2023-04-06T07:27:54;11.50;;;10.33;;
1577;SDS011;57623;53.608;10.004;2023-04-06T07:30:22;10.63;;;9.57;;
1577;SDS011;57623;53.608;10.004;2023-04-06T07:32:52;10.57;;;9.50;;
1577;SDS011;57623;53.608;10.004;2023-04-06T07:35:21;10.80;;;9.30;;
1577;SDS011;57623;53.608;10.004;2023-04-06T07:37:50;10.03;;;9.13;;
1577;SDS011;57623;53.608;10.004;2023-04-06T07:40:20;9.80;;;8.80;;
1577;SDS011;57623;53.608;10.004;2023-04-06T07:42:49;10.30;;;9.30;;
1577;SDS011;57623;53.608;10.004;2023-04-06T07:45:17;9.80;;;8.33;;
1577;SDS011;57623;53.608;10.004;2023-04-06T07:47:46;9.63;;;8.73;;
1577;SDS011;57623;53.608;10.004;2023-04-06T07:50:14;11.60;;;8.20;;
1577;SDS011;57623;53.608;10.004;2023-04-06T07:52:42;8.53;;;7.80;;
1577;SDS011;57623;53.608;10.004;2023-04-06T07:55:10;10.40;;;8.57;;
1577;SDS011;57623;53.608;10.004;2023-04-06T07:57:39;8.43;;;7.63;;
1577;SDS011;57623;53.608;10.004;2023-04-06T08:00:09;8.37;;;7.57;;
1577;SDS011;57623;53.608;10.004;2023-04-06T08:02:38;8.30;;;7.37;;
1577;SDS011;57623;53.608;10.004;2023-04-06T08:05:06;7.70;;;6.40;;
1577;SDS011;57623;53.608;10.004;2023-04-06T08:07:35;14.13;;;7.30;;
1577;SDS011;57623;53.608;10.004;2023-04-06T08:10:03;7.73;;;7.00;;
1577;SDS011;57623;53.608;10.004;2023-04-06T08:12:31;7.07;;;6.30;;
1577;SDS011;57623;53.608;10.004;2023-04-06T08:15:00;7.40;;;6.53;;
1577;SDS011;57623;53.608;10.004;2023-04-06T08:17:30;7.83;;;7.03;;
1577;SDS011;57623;53.608;10.004;2023-04-06T08:20:00;10.60;;;7.00;;
1577;SDS011;57623;53.608;10.004;2023-04-06T08:22:29;6.60;;;6.00;;
1577;SDS011;57623;53.608;10.004;2023-04-06T08:24:57;8.00;;;5.93;;
1577;SDS011;57623;53.608;10.004;2023-04-06T08:27:26;7.57;;;6.20;;
1577;SDS011;57623;53.608;10.004;2023-04-06T08:29:54;6.63;;;5.90;;
1577;SDS011;57623;53.608;10.004;2023-04-06T08:32:22;6.83;;;6.23;;
1577;SDS011;57623;53.608;10.004;2023-04-06T08:34:54;6.80;;;6.10;;
1577;SDS011;57623;53.608;10.004;2023-04-06T08:37:22;6.97;;;6.37;;
1577;SDS011;57623;53.608;10.004;2023-04-06T08:39:50;10.57;;;6.70;;
1577;SDS011;57623;53.608;10.004;2023-04-06T08:42:19;6.47;;;5.87;;
1577;SDS011;57623;53.608;10.004;2023-04-06T08:44:48;6.77;;;6.07;;
1577;SDS011;57623;53.608;10.004;2023-04-06T08:47:17;7.13;;;6.33;;
1577;SDS011;57623;53.608;10.004;2023-04-06T08:49:49;6.43;;;5.83;;
1577;SDS011;57623;53.608;10.004;2023-04-06T08:52:20;7.83;;;6.70;;
1577;SDS011;57623;53.608;10.004;2023-04-06T08:54:48;7.70;;;6.90;;
1577;SDS011;57623;53.608;10.004;2023-04-06T08:57:16;9.47;;;6.30;;
1577;SDS011;57623;53.608;10.004;2023-04-06T08:59:45;10.33;;;6.37;;
1577;SDS011;57623;53.608;10.004;2023-04-06T09:02:15;7.03;;;6.33;;
1577;SDS011;57623;53.608;10.004;2023-04-06T09:04:46;8.13;;;6.77;;
1577;SDS011;57623;53.608;10.004;2023-04-06T09:07:16;6.67;;;6.07;;
1577;SDS011;57623;53.608;10.004;2023-04-06T09:09:46;6.40;;;5.70;;
1577;SDS011;57623;53.608;10.004;2023-04-06T09:12:24;6.23;;;5.63;;
1577;SDS011;57623;53.608;10.004;2023-04-06T09:14:53;7.57;;;6.30;;
1577;SDS011;57623;53.608;10.004;2023-04-06T09:17:23;6.57;;;5.97;;
1577;SDS011;57623;53.608;10.004;2023-04-06T09:19:52;6.03;;;5.43;;
1577;SDS011;57623;53.608;10.004;2023-04-06T09:22:20;5.43;;;4.80;;
1577;SDS011;57623;53.608;10.004;2023-04-06T09:24:50;6.30;;;5.73;;
1577;SDS011;57623;53.608;10.004;2023-04-06T09:27:29;7.93;;;4.83;;
1577;SDS011;57623;53.608;10.004;2023-04-06T09:30:05;8.00;;;5.23;;
1577;SDS011;57623;53.608;10.004;2023-04-06T09:32:43;5.60;;;5.10;;
1577;SDS011;57623;53.608;10.004;2023-04-06T09:35:16;5.43;;;4.93;;
1577;SDS011;57623;53.608;10.004;2023-04-06T09:37:46;7.17;;;5.53;;
1577;SDS011;57623;53.608;10.004;2023-04-06T09:40:17;5.90;;;5.33;;
1577;SDS011;57623;53.608;10.004;2023-04-06T09:42:47;6.07;;;5.57;;
1577;SDS011;57623;53.608;10.004;2023-04-06T09:45:18;5.63;;;5.13;;
1577;SDS011;57623;53.608;10.004;2023-04-06T09:47:47;6.90;;;5.50;;
1577;SDS011;57623;53.608;10.004;2023-04-06T09:50:16;6.80;;;5.80;;
1577;SDS011;57623;53.608;10.004;2023-04-06T09:52:46;6.30;;;5.40;;
1577;SDS011;57623;53.608;10.004;2023-04-06T09:55:20;6.23;;;5.70;;
1577;SDS011;57623;53.608;10.004;2023-04-06T09:57:55;6.93;;;6.33;;
1577;SDS011;57623;53.608;10.004;2023-04-06T10:00:27;5.93;;;5.43;;
1577;SDS011;57623;53.608;10.004;2023-04-06T10:02:58;6.57;;;5.83;;
1577;SDS011;57623;53.608;10.004;2023-04-06T10:05:36;7.93;;;5.67;;
1577;SDS011;57623;53.608;10.004;2023-04-06T10:08:10;7.83;;;5.80;;
1577;SDS011;57623;53.608;10.004;2023-04-06T10:10:39;5.70;;;5.13;;
1577;SDS011;57623;53.608;10.004;2023-04-06T10:13:09;5.30;;;4.80;;
1577;SDS011;57623;53.608;10.004;2023-04-06T10:15:38;7.40;;;5.20;;
1577;SDS011;57623;53.608;10.004;2023-04-06T10:18:06;5.40;;;4.60;;
1577;SDS011;57623;53.608;10.004;2023-04-06T10:20:36;5.20;;;4.80;;
1577;SDS011;57623;53.608;10.004;2023-04-06T10:23:10;5.20;;;4.70;;
1577;SDS011;57623;53.608;10.004;2023-04-06T10:25:52;7.47;;;5.50;;
1577;SDS011;57623;53.608;10.004;2023-04-06T10:28:21;6.53;;;4.90;;
1577;SDS011;57623;53.608;10.004;2023-04-06T10:30:56;6.03;;;4.80;;
1577;SDS011;57623;53.608;10.004;2023-04-06T10:33:24;5.27;;;4.80;;
1577;SDS011;57623;53.608;10.004;2023-04-06T10:35:52;5.33;;;4.93;;
1577;SDS011;57623;53.608;10.004;2023-04-06T10:38:21;5.40;;;4.80;;
1577;SDS011;57623;53.608;10.004;2023-04-06T10:41:05;6.20;;;5.70;;
1577;SDS011;57623;53.608;10.004;2023-04-06T10:43:35;5.47;;;4.97;;
1577;SDS011;57623;53.608;10.004;2023-04-06T10:46:04;5.70;;;5.20;;
1577;SDS011;57623;53.608;10.004;2023-04-06T10:48:36;6.50;;;5.90;;
1577;SDS011;57623;53.608;10.004;2023-04-06T10:51:10;8.03;;;6.10;;
1577;SDS011;57623;53.608;10.004;2023-04-06T10:53:39;7.80;;;6.63;;
1577;SDS011;57623;53.608;10.004;2023-04-06T10:56:10;6.23;;;5.73;;
1577;SDS011;57623;53.608;10.004;2023-04-06T10:58:43;6.80;;;5.70;;
1577;SDS011;57623;53.608;10.004;2023-04-06T11:01:13;6.70;;;6.10;;
1577;SDS011;57623;53.608;10.004;2023-04-06T11:03:43;6.63;;;6.03;;
1577;SDS011;57623;53.608;10.004;2023-04-06T11:06:17;6.83;;;6.23;;
1577;SDS011;57623;53.608;10.004;2023-04-06T11:08:46;7.70;;;6.20;;
1577;SDS011;57623;53.608;10.004;2023-04-06T11:11:16;7.53;;;6.83;;
1577;SDS011;57623;53.608;10.004;2023-04-06T11:13:45;7.10;;;6.50;;
1577;SDS011;57623;53.608;10.004;2023-04-06T11:16:16;7.10;;;6.40;;
1577;SDS011;57623;53.608;10.004;2023-04-06T11:18:51;7.17;;;6.53;;
1577;SDS011;57623;53.608;10.004;2023-04-06T11:21:31;7.87;;;7.27;;
1577;SDS011;57623;53.608;10.004;2023-04-06T11:24:04;7.70;;;6.73;;
1577;SDS011;57623;53.608;10.004;2023-04-06T11:26:37;8.03;;;6.90;;
1577;SDS011;57623;53.608;10.004;2023-04-06T11:29:06;7.50;;;6.80;;
1577;SDS011;57623;53.608;10.004;2023-04-06T11:31:41;7.90;;;7.10;;
1577;SDS011;57623;53.608;10.004;2023-04-06T11:34:12;8.00;;;7.30;;
1577;SDS011;57623;53.608;10.004;2023-04-06T11:36:43;10.40;;;8.10;;
1577;SDS011;57623;53.608;10.004;2023-04-06T11:39:13;8.60;;;7.90;;
1577;SDS011;57623;53.608;10.004;2023-04-06T11:41:48;7.90;;;7.13;;
1577;SDS011;57623;53.608;10.004;2023-04-06T11:44:28;8.50;;;7.80;;
1577;SDS011;57623;53.608;10.004;2023-04-06T11:46:59;8.63;;;7.83;;
1577;SDS011;57623;53.608;10.004;2023-04-06T11:49:28;9.30;;;8.40;;
1577;SDS011;57623;53.608;10.004;2023-04-06T11:51:56;10.70;;;8.00;;
1577;SDS011;57623;53.608;10.004;2023-04-06T11:54:29;8.60;;;7.80;;
1577;SDS011;57623;53.608;10.004;2023-04-06T11:56:59;8.87;;;8.10;;
1577;SDS011;57623;53.608;10.004;2023-04-06T11:59:29;8.40;;;7.70;;
1577;SDS011;57623;53.608;10.004;2023-04-06T12:01:57;8.87;;;8.07;;
1577;SDS011;57623;53.608;10.004;2023-04-06T12:04:25;8.63;;;7.93;;
1577;SDS011;57623;53.608;10.004;2023-04-06T12:06:53;9.20;;;8.33;;
1577;SDS011;57623;53.608;10.004;2023-04-06T12:09:22;8.53;;;7.73;;
1577;SDS011;57623;53.608;10.004;2023-04-06T12:11:50;8.27;;;7.57;;
1577;SDS011;57623;53.608;10.004;2023-04-06T12:14:20;9.03;;;8.13;;
1577;SDS011;57623;53.608;10.004;2023-04-06T12:16:48;7.30;;;6.70;;
1577;SDS011;57623;53.608;10.004;2023-04-06T12:19:16;7.97;;;7.17;;
1577;SDS011;57623;53.608;10.004;2023-04-06T12:21:44;8.27;;;7.57;;
1577;SDS011;57623;53.608;10.004;2023-04-06T12:24:12;8.30;;;7.60;;
1577;SDS011;57623;53.608;10.004;2023-04-06T12:26:42;8.07;;;7.37;;
1577;SDS011;57623;53.608;10.004;2023-04-06T12:29:10;7.80;;;7.10;;
1577;SDS011;57623;53.608;10.004;2023-04-06T12:31:40;9.00;;;8.23;;
1577;SDS011;57623;53.608;10.004;2023-04-06T12:34:10;7.83;;;7.10;;
1577;SDS011;57623;53.608;10.004;2023-04-06T12:36:38;8.50;;;7.70;;
1577;SDS011;57623;53.608;10.004;2023-04-06T12:39:06;11.07;;;7.20;;
1577;SDS011;57623;53.608;10.004;2023-04-06T12:41:34;7.93;;;7.17;;
1577;SDS011;57623;53.608;10.004;2023-04-06T12:44:03;7.93;;;7.23;;
1577;SDS011;57623;53.608;10.004;2023-04-06T12:46:31;8.43;;;7.73;;
1577;SDS011;57623;53.608;10.004;2023-04-06T12:49:00;8.67;;;7.87;;
1577;SDS011;57623;53.608;10.004;2023-04-06T12:51:29;8.10;;;7.40;;
1577;SDS011;57623;53.608;10.004;2023-04-06T12:53:58;8.20;;;7.50;;
1577;SDS011;57623;53.608;10.004;2023-04-06T12:56:26;7.27;;;6.67;;
1577;SDS011;57623;53.608;10.004;2023-04-06T12:58:54;8.57;;;7.77;;
1577;SDS011;57623;53.608;10.004;2023-04-06T13:01:22;9.10;;;7.97;;
1577;SDS011;57623;53.608;10.004;2023-04-06T13:03:51;9.53;;;8.47;;
1577;SDS011;57623;53.608;10.004;2023-04-06T13:06:21;8.23;;;7.53;;
1577;SDS011;57623;53.608;10.004;2023-04-06T13:08:49;8.50;;;7.70;;
1577;SDS011;57623;53.608;10.004;2023-04-06T13:11:17;7.93;;;7.13;;
1577;SDS011;57623;53.608;10.004;2023-04-06T13:13:46;7.93;;;7.23;;
1577;SDS011;57623;53.608;10.004;2023-04-06T13:16:14;8.00;;;7.30;;
1577;SDS011;57623;53.608;10.004;2023-04-06T13:18:43;8.60;;;7.90;;
1577;SDS011;57623;53.608;10.004;2023-04-06T13:21:13;7.70;;;7.03;;
1577;SDS011;57623;53.608;10.004;2023-04-06T13:23:43;8.53;;;7.80;;
1577;SDS011;57623;53.608;10.004;2023-04-06T13:26:11;8.70;;;8.00;;
1577;SDS011;57623;53.608;10.004;2023-04-06T13:28:41;7.90;;;7.30;;
1577;SDS011;57623;53.608;10.004;2023-04-06T13:31:09;8.20;;;7.50;;
1577;SDS011;57623;53.608;10.004;2023-04-06T13:33:38;9.10;;;8.13;;
1577;SDS011;57623;53.608;10.004;2023-04-06T13:36:07;7.83;;;7.23;;
1577;SDS011;57623;53.608;10.004;2023-04-06T13:38:35;8.30;;;7.50;;
1577;SDS011;57623;53.608;10.004;2023-04-06T13:41:06;8.50;;;7.80;;
1577;SDS011;57623;53.608;10.004;2023-04-06T13:43:34;9.10;;;8.40;;
1577;SDS011;57623;53.608;10.004;2023-04-06T13:46:02;8.13;;;7.53;;
1577;SDS011;57623;53.608;10.004;2023-04-06T13:48:31;7.77;;;7.17;;
1577;SDS011;57623;53.608;10.004;2023-04-06T13:51:07;8.60;;;8.00;;
1577;SDS011;57623;53.608;10.004;2023-04-06T13:53:35;9.37;;;8.67;;
1577;SDS011;57623;53.608;10.004;2023-04-06T13:56:08;9.23;;;8.53;;
1577;SDS011;57623;53.608;10.004;2023-04-06T13:58:36;9.10;;;8.40;;
1577;SDS011;57623;53.608;10.004;2023-04-06T14:01:04;8.03;;;7.43;;
1577;SDS011;57623;53.608;10.004;2023-04-06T14:03:34;9.10;;;8.50;;
1577;SDS011;57623;53.608;10.004;2023-04-06T14:06:09;8.13;;;7.53;;
1577;SDS011;57623;53.608;10.004;2023-04-06T14:08:55;9.07;;;8.47;;
1577;SDS011;57623;53.608;10.004;2023-04-06T14:11:24;9.10;;;8.30;;
1577;SDS011;57623;53.608;10.004;2023-04-06T14:13:53;8.57;;;7.87;;
1577;SDS011;57623;53.608;10.004;2023-04-06T14:16:23;9.53;;;8.83;;
1577;SDS011;57623;53.608;10.004;2023-04-06T14:18:52;8.73;;;8.03;;
1577;SDS011;57623;53.608;10.004;2023-04-06T14:21:21;9.63;;;8.73;;
1577;SDS011;57623;53.608;10.004;2023-04-06T14:23:49;9.73;;;9.00;;
1577;SDS011;57623;53.608;10.004;2023-04-06T14:26:18;10.47;;;9.57;;
1577;SDS011;57623;53.608;10.004;2023-04-06T14:28:48;10.63;;;9.73;;
1577;SDS011;57623;53.608;10.004;2023-04-06T14:31:16;10.13;;;9.20;;
1577;SDS011;57623;53.608;10.004;2023-04-06T14:33:44;9.17;;;8.37;;
1577;SDS011;57623;53.608;10.004;2023-04-06T14:36:13;10.10;;;9.27;;
1577;SDS011;57623;53.608;10.004;2023-04-06T14:38:41;10.77;;;9.77;;
1577;SDS011;57623;53.608;10.004;2023-04-06T14:41:14;10.00;;;9.10;;
1577;SDS011;57623;53.608;10.004;2023-04-06T14:43:42;9.07;;;8.27;;
1577;SDS011;57623;53.608;10.004;2023-04-06T14:46:12;9.13;;;8.37;;
1577;SDS011;57623;53.608;10.004;2023-04-06T14:48:41;10.23;;;9.43;;
1577;SDS011;57623;53.608;10.004;2023-04-06T14:51:09;9.93;;;9.03;;
1577;SDS011;57623;53.608;10.004;2023-04-06T14:53:38;9.63;;;8.83;;
1577;SDS011;57623;53.608;10.004;2023-04-06T14:56:06;9.90;;;9.20;;
1577;SDS011;57623;53.608;10.004;2023-04-06T14:58:34;10.03;;;9.10;;